Time;durP1;ratioP1;P1;durP2;ratioP2;P2;SDS_P1;SDS_P2;PMS_P1;PMS_P2;Temp;Humidity;BMP_temperature;BMP_pressure;BME280_temperature;BME280_humidity;BME280_pressure;Samples;Min_cycle;Max_cycle;Signal;HPM_P1;HPM_P2
2021/04/03 00:00:19;;;;;;;16.50;5.47;;;;;;;;;;2052968;28;20562;-58
2021/04/03 00:01:19;;;;;;;12.23;4.43;;;;;;;;;;2045753;29;20178;-56
2021/04/03 00:02:19;;;;;;;12.03;4.73;;;;;;;;;;2044642;29;20233;-55
2021/04/03 00:03:21;;;;;;;11.83;4.90;;;;;;;;;;2053050;28;20197;-58
2021/04/03 00:04:21;;;;;;;9.63;4.43;;;;;;;;;;2050343;28;20185;-60
2021/04/03 00:05:22;;;;;;;15.47;4.67;;;;;;;;;;2053998;28;20174;-59
2021/04/03 00:06:23;;;;;;;14.37;4.93;;;;;;;;;;2042433;29;20191;-59
2021/04/03 00:07:23;;;;;;;12.10;4.90;;;;;;;;;;2046536;29;20182;-57
2021/04/03 00:08:24;;;;;;;15.13;4.60;;;;;;;;;;2052764;28;20174;-61
2021/04/03 00:09:24;;;;;;;14.03;4.67;;;;;;;;;;2051992;28;20662;-57
2021/04/03 00:10:26;;;;;;;7.93;4.60;;;;;;;;;;2053282;28;20242;-56
2021/04/03 00:11:26;;;;;;;14.50;6.07;;;;;;;;;;2053396;28;20174;-59
2021/04/03 00:12:27;;;;;;;14.13;5.17;;;;;;;;;;2047003;29;20226;-59
2021/04/03 00:13:28;;;;;;;10.97;4.30;;;;;;;;;;2049139;29;20167;-59
2021/04/03 00:14:29;;;;;;;9.90;4.20;;;;;;;;;;2057048;28;20170;-59
2021/04/03 00:15:29;;;;;;;16.60;4.97;;;;;;;;;;2047700;29;20655;-59
2021/04/03 00:16:29;;;;;;;13.00;4.20;;;;;;;;;;2046864;29;20187;-59
2021/04/03 00:17:30;;;;;;;16.97;5.30;;;;;;;;;;2050904;29;20190;-57
2021/04/03 00:18:30;;;;;;;14.00;4.70;;;;;;;;;;2046516;29;20625;-59
2021/04/03 00:19:30;;;;;;;17.17;5.00;;;;;;;;;;2049919;29;20183;-58
2021/04/03 00:20:32;;;;;;;12.97;5.03;;;;;;;;;;2054742;28;20198;-60
2021/04/03 00:21:32;;;;;;;11.50;4.17;;;;;;;;;;2059110;28;20178;-61
2021/04/03 00:22:32;;;;;;;13.10;5.07;;;;;;;;;;2045865;29;20160;-59
2021/04/03 00:23:33;;;;;;;9.83;4.27;;;;;;;;;;2040805;29;20221;-57
2021/04/03 00:24:33;;;;;;;10.90;4.20;;;;;;;;;;2042674;29;20176;-58
2021/04/03 00:25:34;;;;;;;8.73;4.13;;;;;;;;;;2050717;29;20167;-58
2021/04/03 00:26:34;;;;;;;16.47;4.77;;;;;;;;;;2054177;28;20206;-59
2021/04/03 00:27:34;;;;;;;10.17;4.70;;;;;;;;;;2058465;28;20323;-56
2021/04/03 00:28:34;;;;;;;18.37;5.30;;;;;;;;;;2059045;28;20253;-58
2021/04/03 00:29:35;;;;;;;11.87;4.20;;;;;;;;;;2044993;29;20267;-58
2021/04/03 00:30:35;;;;;;;12.43;4.13;;;;;;;;;;2049450;29;20575;-58
2021/04/03 00:31:35;;;;;;;14.10;4.87;;;;;;;;;;2045328;29;20672;-59
2021/04/03 00:32:35;;;;;;;15.03;4.53;;;;;;;;;;2049647;29;20245;-59
2021/04/03 00:33:36;;;;;;;12.37;4.90;;;;;;;;;;2053490;28;20672;-57
2021/04/03 00:34:36;;;;;;;11.37;4.30;;;;;;;;;;2046915;29;20182;-58
2021/04/03 00:35:38;;;;;;;12.40;4.40;;;;;;;;;;2041645;29;20195;-61
2021/04/03 00:36:38;;;;;;;13.17;4.33;;;;;;;;;;2040607;29;20172;-59
2021/04/03 00:37:39;;;;;;;14.80;4.50;;;;;;;;;;2046781;29;20186;-58
2021/04/03 00:38:39;;;;;;;9.53;4.37;;;;;;;;;;2042676;29;20186;-59
2021/04/03 00:39:39;;;;;;;9.83;4.37;;;;;;;;;;2052360;28;20179;-57
2021/04/03 00:40:41;;;;;;;11.83;4.50;;;;;;;;;;2058505;28;20178;-59
2021/04/03 00:41:41;;;;;;;16.73;4.33;;;;;;;;;;2051261;28;20179;-58
2021/04/03 00:42:42;;;;;;;10.30;4.13;;;;;;;;;;2056718;28;20182;-57
2021/04/03 00:43:42;;;;;;;11.63;4.87;;;;;;;;;;2050470;28;20171;-60
2021/04/03 00:44:46;;;;;;;11.17;4.67;;;;;;;;;;2049240;29;20203;-55
2021/04/03 00:45:47;;;;;;;12.40;5.10;;;;;;;;;;2049578;28;20595;-59
2021/04/03 00:46:47;;;;;;;9.60;4.83;;;;;;;;;;2058505;28;20202;-57
2021/04/03 00:47:48;;;;;;;11.47;4.63;;;;;;;;;;2041750;29;20174;-59
2021/04/03 00:48:48;;;;;;;11.63;4.50;;;;;;;;;;2041577;29;20175;-56
2021/04/03 00:49:49;;;;;;;14.37;5.07;;;;;;;;;;2025596;29;20185;-57
2021/04/03 00:50:51;;;;;;;10.83;4.77;;;;;;;;;;2041268;29;20180;-59
2021/04/03 00:51:53;;;;;;;21.73;5.30;;;;;;;;;;2032380;29;20223;-59
2021/04/03 00:52:54;;;;;;;22.07;5.53;;;;;;;;;;2049240;29;20199;-57
2021/04/03 00:53:54;;;;;;;13.53;4.77;;;;;;;;;;2042660;29;20252;-56
2021/04/03 00:54:55;;;;;;;8.47;4.90;;;;;;;;;;2048839;29;20175;-58
2021/04/03 00:55:57;;;;;;;19.47;4.90;;;;;;;;;;2056328;28;20170;-57
2021/04/03 00:56:59;;;;;;;12.37;4.97;;;;;;;;;;2056169;28;20647;-56
2021/04/03 00:58:00;;;;;;;11.50;5.03;;;;;;;;;;2045468;29;20190;-62
2021/04/03 00:59:00;;;;;;;9.40;4.50;;;;;;;;;;2039037;29;20626;-58
2021/04/03 01:00:03;;;;;;;11.37;4.43;;;;;;;;;;2041084;29;20183;-60
2021/04/03 01:01:05;;;;;;;13.93;4.70;;;;;;;;;;2031885;29;20184;-58
2021/04/03 01:02:10;;;;;;;11.87;4.40;;;;;;;;;;2038849;29;20684;-59
2021/04/03 01:03:12;;;;;;;23.57;5.60;;;;;;;;;;2036134;29;20224;-62
2021/04/03 01:04:13;;;;;;;16.03;6.07;;;;;;;;;;2031337;29;20694;-58
2021/04/03 01:05:18;;;;;;;14.00;4.60;;;;;;;;;;2036198;29;20191;-60
2021/04/03 01:06:19;;;;;;;12.13;4.50;;;;;;;;;;2048853;29;20257;-59
2021/04/03 01:07:19;;;;;;;13.03;5.23;;;;;;;;;;2040061;29;20194;-60
2021/04/03 01:08:20;;;;;;;13.37;4.47;;;;;;;;;;2042839;29;20262;-59
2021/04/03 01:09:21;;;;;;;10.60;4.50;;;;;;;;;;2035679;29;20208;-60
2021/04/03 01:10:26;;;;;;;12.63;4.97;;;;;;;;;;2041193;29;20199;-60
2021/04/03 01:11:30;;;;;;;13.67;4.80;;;;;;;;;;2046242;29;20265;-57
2021/04/03 01:12:34;;;;;;;11.00;4.40;;;;;;;;;;2049559;28;20177;-59
2021/04/03 01:13:41;;;;;;;10.00;4.60;;;;;;;;;;2053488;28;20179;-58
2021/04/03 01:15:00;;;;;;;10.77;4.67;;;;;;;;;;2051026;29;20163;-59
2021/04/03 01:16:13;;;;;;;13.63;4.87;;;;;;;;;;2040665;29;20263;-59
2021/04/03 01:17:23;;;;;;;15.03;4.73;;;;;;;;;;2043635;29;20210;-59
2021/04/03 01:18:42;;;;;;;16.00;4.97;;;;;;;;;;2044936;29;20715;-58
2021/04/03 01:20:06;;;;;;;13.77;5.43;;;;;;;;;;2042180;28;20719;-59
2021/04/03 01:21:20;;;;;;;14.90;4.83;;;;;;;;;;2022862;29;20521;-57
2021/04/03 01:22:37;;;;;;;13.97;4.73;;;;;;;;;;2053606;28;20287;-60
2021/04/03 01:23:56;;;;;;;16.03;5.47;;;;;;;;;;2042128;29;20312;-61
2021/04/03 01:25:16;;;;;;;13.07;5.20;;;;;;;;;;2037898;29;20171;-54
2021/04/03 01:26:35;;;;;;;21.13;4.93;;;;;;;;;;2043700;29;20176;-57
2021/04/03 01:27:46;;;;;;;15.73;4.90;;;;;;;;;;2054535;28;20182;-58
2021/04/03 01:29:15;;;;;;;12.63;4.50;;;;;;;;;;2049208;28;20171;-58
2021/04/03 01:30:18;;;;;;;12.37;5.07;;;;;;;;;;2018837;29;20702;-55
2021/04/03 01:31:29;;;;;;;11.13;4.17;;;;;;;;;;2020510;28;20189;-55
2021/04/03 01:32:48;;;;;;;18.37;5.67;;;;;;;;;;2039418;29;20176;-57
2021/04/03 01:33:53;;;;;;;13.17;4.93;;;;;;;;;;2042987;29;20172;-59
2021/04/03 01:34:56;;;;;;;11.07;4.97;;;;;;;;;;2042813;28;20183;-57
2021/04/03 01:36:00;;;;;;;15.43;4.53;;;;;;;;;;2047773;29;20176;-58
2021/04/03 01:37:02;;;;;;;18.80;5.57;;;;;;;;;;2033812;29;20692;-59
2021/04/03 01:38:14;;;;;;;19.20;5.40;;;;;;;;;;2047205;28;20175;-56
2021/04/03 01:39:22;;;;;;;13.90;5.10;;;;;;;;;;2043520;29;20686;-55
2021/04/03 01:40:24;;;;;;;13.13;4.63;;;;;;;;;;2044058;29;20172;-58
2021/04/03 01:41:29;;;;;;;16.20;5.27;;;;;;;;;;2042791;29;20183;-56
2021/04/03 01:42:33;;;;;;;17.27;6.00;;;;;;;;;;2043939;28;20267;-55
2021/04/03 01:43:39;;;;;;;10.77;4.47;;;;;;;;;;2048443;29;20175;-58
2021/04/03 01:44:45;;;;;;;13.33;5.07;;;;;;;;;;2041744;29;20183;-55
2021/04/03 01:45:47;;;;;;;16.37;4.57;;;;;;;;;;2048275;29;20266;-57
2021/04/03 01:46:50;;;;;;;12.07;4.50;;;;;;;;;;2024639;29;20196;-55
2021/04/03 01:47:53;;;;;;;15.70;4.83;;;;;;;;;;2030643;28;20955;-57
2021/04/03 01:48:56;;;;;;;17.90;5.13;;;;;;;;;;2041047;29;21006;-57
2021/04/03 01:49:57;;;;;;;12.40;4.83;;;;;;;;;;2047581;29;20286;-59
2021/04/03 01:50:58;;;;;;;21.57;6.57;;;;;;;;;;2049141;28;20169;-58
2021/04/03 01:51:59;;;;;;;13.27;4.47;;;;;;;;;;2038998;29;20731;-56
2021/04/03 01:53:01;;;;;;;16.33;5.43;;;;;;;;;;2035523;28;20175;-58
2021/04/03 01:54:02;;;;;;;15.30;4.83;;;;;;;;;;2051908;28;20644;-60
2021/04/03 01:55:07;;;;;;;18.43;4.97;;;;;;;;;;2046512;29;20186;-59
2021/04/03 01:56:08;;;;;;;12.40;4.53;;;;;;;;;;2043390;28;20202;-59
2021/04/03 01:57:14;;;;;;;14.33;4.47;;;;;;;;;;2044417;29;20302;-57
2021/04/03 01:58:21;;;;;;;14.53;5.60;;;;;;;;;;2042899;28;20175;-57
2021/04/03 01:59:22;;;;;;;11.70;3.83;;;;;;;;;;2052334;28;20175;-59
2021/04/03 02:00:28;;;;;;;13.13;4.60;;;;;;;;;;2046738;29;20179;-59
2021/04/03 02:01:44;;;;;;;19.67;5.13;;;;;;;;;;2043733;28;20211;-58
2021/04/03 02:02:47;;;;;;;19.27;5.17;;;;;;;;;;2036647;29;20560;-58
2021/04/03 02:03:55;;;;;;;13.37;4.97;;;;;;;;;;2025079;29;20185;-59
2021/04/03 02:04:57;;;;;;;11.80;4.83;;;;;;;;;;2027594;29;20192;-56
2021/04/03 02:06:00;;;;;;;14.13;4.77;;;;;;;;;;2039537;29;20179;-58
2021/04/03 02:07:26;;;;;;;14.37;4.60;;;;;;;;;;2039477;29;20191;-57
2021/04/03 02:08:30;;;;;;;14.47;5.43;;;;;;;;;;2041443;29;20195;-57
2021/04/03 02:09:52;;;;;;;15.93;4.03;;;;;;;;;;2038143;28;20223;-58
2021/04/03 02:11:06;;;;;;;12.50;4.93;;;;;;;;;;2046077;29;20154;-57
2021/04/03 02:12:07;;;;;;;15.20;4.87;;;;;;;;;;2041672;28;20203;-57
2021/04/03 02:13:18;;;;;;;15.23;5.30;;;;;;;;;;2056299;28;20158;-58
2021/04/03 02:14:24;;;;;;;11.50;5.30;;;;;;;;;;2050269;28;20269;-58
2021/04/03 02:15:25;;;;;;;16.73;4.87;;;;;;;;;;2041069;29;20175;-58
2021/04/03 02:16:30;;;;;;;11.97;5.60;;;;;;;;;;2042939;28;20185;-55
2021/04/03 02:17:33;;;;;;;13.47;5.20;;;;;;;;;;2052266;28;20249;-58
2021/04/03 02:18:37;;;;;;;15.90;5.27;;;;;;;;;;2047715;28;20173;-57
2021/04/03 02:19:40;;;;;;;15.73;4.93;;;;;;;;;;2033986;29;20176;-59
2021/04/03 02:20:45;;;;;;;12.30;4.73;;;;;;;;;;2038790;29;20666;-58
2021/04/03 02:21:46;;;;;;;18.37;4.63;;;;;;;;;;2048382;28;20194;-58
2021/04/03 02:22:47;;;;;;;19.60;5.10;;;;;;;;;;2040453;29;20822;-58
2021/04/03 02:23:48;;;;;;;13.80;4.90;;;;;;;;;;2037277;29;20255;-57
2021/04/03 02:24:49;;;;;;;21.83;5.47;;;;;;;;;;2047525;29;20596;-54
2021/04/03 02:25:55;;;;;;;13.47;4.83;;;;;;;;;;2032947;29;20160;-55
2021/04/03 02:26:56;;;;;;;17.00;4.90;;;;;;;;;;2041683;28;20191;-58
2021/04/03 02:27:56;;;;;;;18.50;5.83;;;;;;;;;;2047035;29;20214;-58
2021/04/03 02:28:57;;;;;;;17.07;5.33;;;;;;;;;;2031799;29;20184;-58
2021/04/03 02:30:11;;;;;;;20.97;4.83;;;;;;;;;;2041381;29;20200;-59
2021/04/03 02:31:12;;;;;;;17.77;5.17;;;;;;;;;;2047692;29;20178;-60
2021/04/03 02:32:13;;;;;;;12.40;4.57;;;;;;;;;;2044700;28;20734;-58
2021/04/03 02:33:14;;;;;;;23.13;5.87;;;;;;;;;;2051085;28;20181;-54
2021/04/03 02:34:14;;;;;;;16.90;5.53;;;;;;;;;;2048931;29;20191;-58
2021/04/03 02:35:17;;;;;;;12.23;5.20;;;;;;;;;;2038192;29;20206;-59
2021/04/03 02:36:18;;;;;;;15.97;4.73;;;;;;;;;;2046717;29;20652;-55
2021/04/03 02:37:19;;;;;;;12.50;5.33;;;;;;;;;;2037356;29;20708;-59
2021/04/03 02:38:19;;;;;;;14.70;5.67;;;;;;;;;;2036296;29;20192;-58
2021/04/03 02:39:29;;;;;;;15.40;5.80;;;;;;;;;;2038139;29;20278;-58
2021/04/03 02:40:31;;;;;;;11.43;4.73;;;;;;;;;;2046110;29;20175;-54
2021/04/03 02:41:37;;;;;;;15.47;5.87;;;;;;;;;;2044376;28;20183;-55
2021/04/03 02:42:44;;;;;;;21.43;5.73;;;;;;;;;;2038480;29;20180;-58
2021/04/03 02:43:49;;;;;;;13.87;5.53;;;;;;;;;;2042341;29;20175;-59
2021/04/03 02:44:53;;;;;;;14.20;4.60;;;;;;;;;;2036623;28;20242;-59
2021/04/03 02:46:27;;;;;;;15.83;5.40;;;;;;;;;;2049532;29;20186;-59
2021/04/03 02:47:33;;;;;;;15.73;5.33;;;;;;;;;;2026005;29;20259;-59
2021/04/03 02:48:37;;;;;;;12.93;5.00;;;;;;;;;;2045527;29;20202;-59
2021/04/03 02:49:39;;;;;;;17.40;5.83;;;;;;;;;;2049708;28;20194;-59
2021/04/03 02:50:41;;;;;;;12.37;4.90;;;;;;;;;;2055878;28;20205;-60
2021/04/03 02:51:46;;;;;;;14.20;5.47;;;;;;;;;;2051726;28;20628;-62
2021/04/03 02:52:50;;;;;;;14.20;4.97;;;;;;;;;;2051029;23;20172;-55
2021/04/03 02:53:53;;;;;;;14.80;6.13;;;;;;;;;;2021853;29;20181;-56
2021/04/03 02:54:57;;;;;;;11.53;5.20;;;;;;;;;;2033103;29;20196;-55
2021/04/03 02:56:01;;;;;;;14.13;5.57;;;;;;;;;;2039779;29;20175;-54
2021/04/03 02:57:03;;;;;;;17.20;5.13;;;;;;;;;;2033051;29;20228;-57
2021/04/03 02:58:05;;;;;;;17.37;5.80;;;;;;;;;;2039799;29;20176;-58
2021/04/03 02:59:12;;;;;;;12.73;4.87;;;;;;;;;;2031728;29;20653;-59
2021/04/03 03:00:14;;;;;;;22.23;5.93;;;;;;;;;;2025534;29;20185;-58
2021/04/03 03:01:15;;;;;;;16.60;5.90;;;;;;;;;;2032006;29;20190;-55
2021/04/03 03:02:27;;;;;;;14.80;5.20;;;;;;;;;;2033640;29;20176;-59
2021/04/03 03:03:30;;;;;;;22.73;5.90;;;;;;;;;;2037808;29;20266;-60
2021/04/03 03:04:32;;;;;;;17.77;5.40;;;;;;;;;;2040684;29;20266;-58
2021/04/03 03:05:33;;;;;;;19.40;6.10;;;;;;;;;;2041852;29;20188;-56
2021/04/03 03:06:34;;;;;;;17.03;6.20;;;;;;;;;;2033862;29;20227;-59
2021/04/03 03:07:40;;;;;;;18.67;5.67;;;;;;;;;;2038438;29;20805;-61
2021/04/03 03:08:41;;;;;;;16.70;5.93;;;;;;;;;;2030910;29;20199;-59
2021/04/03 03:09:44;;;;;;;16.60;5.30;;;;;;;;;;2033062;29;20195;-58
2021/04/03 03:10:48;;;;;;;16.13;5.50;;;;;;;;;;2032874;29;20176;-60
2021/04/03 03:11:52;;;;;;;14.97;4.97;;;;;;;;;;2032040;29;20641;-59
2021/04/03 03:12:53;;;;;;;18.70;6.23;;;;;;;;;;2039518;29;20179;-59
2021/04/03 03:13:57;;;;;;;12.27;5.07;;;;;;;;;;2039483;29;20653;-56
2021/04/03 03:14:59;;;;;;;16.30;6.10;;;;;;;;;;2036073;29;20229;-60
2021/04/03 03:16:03;;;;;;;15.00;5.97;;;;;;;;;;2043826;29;20176;-58
2021/04/03 03:17:05;;;;;;;16.17;6.23;;;;;;;;;;2034351;29;20188;-61
2021/04/03 03:18:06;;;;;;;15.73;6.70;;;;;;;;;;2045976;29;20234;-59
2021/04/03 03:19:12;;;;;;;15.00;5.57;;;;;;;;;;2042899;29;20253;-59
2021/04/03 03:20:15;;;;;;;16.07;5.97;;;;;;;;;;2044599;29;20610;-60
2021/04/03 03:21:15;;;;;;;16.83;5.53;;;;;;;;;;2033380;29;20183;-58
2021/04/03 03:22:16;;;;;;;17.27;5.97;;;;;;;;;;2044662;29;20258;-59
2021/04/03 03:23:16;;;;;;;10.83;5.07;;;;;;;;;;2043375;29;20214;-58
2021/04/03 03:24:18;;;;;;;10.50;5.60;;;;;;;;;;2036884;29;20190;-61
2021/04/03 03:25:19;;;;;;;14.87;6.13;;;;;;;;;;2035703;29;20669;-61
2021/04/03 03:26:21;;;;;;;15.20;5.60;;;;;;;;;;2039335;29;20225;-56
2021/04/03 03:27:23;;;;;;;14.90;6.13;;;;;;;;;;2041658;29;20182;-55
2021/04/03 03:28:25;;;;;;;22.77;6.67;;;;;;;;;;2039622;29;20663;-61
2021/04/03 03:29:26;;;;;;;15.93;5.50;;;;;;;;;;2037503;29;20232;-60
2021/04/03 03:30:27;;;;;;;21.33;6.13;;;;;;;;;;2033223;29;20295;-60
2021/04/03 03:31:31;;;;;;;17.80;6.10;;;;;;;;;;2047365;28;20183;-57
2021/04/03 03:32:31;;;;;;;17.27;6.03;;;;;;;;;;2043346;29;20251;-59
2021/04/03 03:33:35;;;;;;;16.13;5.73;;;;;;;;;;2045113;29;20210;-58
2021/04/03 03:34:39;;;;;;;19.87;5.80;;;;;;;;;;2048247;29;20614;-61
2021/04/03 03:35:43;;;;;;;12.17;5.83;;;;;;;;;;2045182;29;20692;-56
2021/04/03 03:36:46;;;;;;;15.40;5.97;;;;;;;;;;2043443;29;20743;-59
2021/04/03 03:37:47;;;;;;;17.27;6.47;;;;;;;;;;2045070;29;20180;-60
2021/04/03 03:38:49;;;;;;;15.90;5.63;;;;;;;;;;2055280;28;20170;-56
2021/04/03 03:39:50;;;;;;;16.50;6.10;;;;;;;;;;2044569;29;20179;-59
2021/04/03 03:40:54;;;;;;;16.33;6.37;;;;;;;;;;2028128;29;20762;-59
2021/04/03 03:41:57;;;;;;;21.77;5.73;;;;;;;;;;2041654;29;20271;-59
2021/04/03 03:43:00;;;;;;;19.07;7.20;;;;;;;;;;2048082;28;20199;-58
2021/04/03 03:44:08;;;;;;;14.20;6.47;;;;;;;;;;2043197;29;20175;-60
2021/04/03 03:45:10;;;;;;;15.50;6.43;;;;;;;;;;2039256;29;20183;-58
2021/04/03 03:46:11;;;;;;;18.20;6.53;;;;;;;;;;2043646;29;20229;-59
2021/04/03 03:47:12;;;;;;;15.73;6.43;;;;;;;;;;2042542;29;20177;-59
2021/04/03 03:48:15;;;;;;;18.17;7.60;;;;;;;;;;2037346;29;20206;-60
2021/04/03 03:49:16;;;;;;;17.13;6.40;;;;;;;;;;2045490;29;20699;-59
2021/04/03 03:50:17;;;;;;;18.37;6.63;;;;;;;;;;2045074;29;20218;-58
2021/04/03 03:51:19;;;;;;;17.43;6.10;;;;;;;;;;2043835;29;20191;-60
2021/04/03 03:52:29;;;;;;;16.43;6.47;;;;;;;;;;2046105;29;20204;-60
2021/04/03 03:53:29;;;;;;;18.73;5.37;;;;;;;;;;2042910;29;20226;-59
2021/04/03 03:54:29;;;;;;;15.23;6.00;;;;;;;;;;2046803;29;20607;-60
2021/04/03 03:55:30;;;;;;;20.77;6.40;;;;;;;;;;2041589;29;20190;-59
2021/04/03 03:56:34;;;;;;;18.53;6.07;;;;;;;;;;2033727;29;20185;-61
2021/04/03 03:57:34;;;;;;;22.67;6.50;;;;;;;;;;2043239;29;20752;-58
2021/04/03 03:58:35;;;;;;;15.53;6.43;;;;;;;;;;2047701;29;20167;-60
2021/04/03 03:59:36;;;;;;;14.40;5.90;;;;;;;;;;2035015;29;20648;-59
2021/04/03 04:00:37;;;;;;;17.90;5.77;;;;;;;;;;2039910;29;20172;-61
2021/04/03 04:01:42;;;;;;;20.97;6.50;;;;;;;;;;2034502;29;20232;-60
2021/04/03 04:02:43;;;;;;;19.87;5.63;;;;;;;;;;2041217;29;20266;-60
2021/04/03 04:03:49;;;;;;;19.10;5.73;;;;;;;;;;2041332;28;20183;-61
2021/04/03 04:04:52;;;;;;;20.00;6.90;;;;;;;;;;2048711;29;20680;-60
2021/04/03 04:05:53;;;;;;;19.07;6.30;;;;;;;;;;2036326;28;20243;-59
2021/04/03 04:06:56;;;;;;;20.87;6.20;;;;;;;;;;2043899;28;20180;-59
2021/04/03 04:08:01;;;;;;;20.07;6.67;;;;;;;;;;2035806;29;20215;-59
2021/04/03 04:09:04;;;;;;;20.03;6.50;;;;;;;;;;2036861;29;20187;-59
2021/04/03 04:10:11;;;;;;;16.97;6.90;;;;;;;;;;2040963;29;20211;-58
2021/04/03 04:11:15;;;;;;;21.03;7.50;;;;;;;;;;2040786;29;20186;-60
2021/04/03 04:12:18;;;;;;;22.17;6.63;;;;;;;;;;2040942;29;20188;-57
2021/04/03 04:13:24;;;;;;;21.97;6.50;;;;;;;;;;2044673;29;20683;-58
2021/04/03 04:14:26;;;;;;;18.13;6.40;;;;;;;;;;2044957;29;20183;-59
2021/04/03 04:15:33;;;;;;;20.23;6.53;;;;;;;;;;2044262;29;20691;-62
2021/04/03 04:16:35;;;;;;;19.60;6.27;;;;;;;;;;2035856;29;20188;-60
2021/04/03 04:17:35;;;;;;;21.97;6.93;;;;;;;;;;2035783;29;20672;-60
2021/04/03 04:18:38;;;;;;;20.73;6.80;;;;;;;;;;2047386;29;20218;-58
2021/04/03 04:19:42;;;;;;;21.17;6.87;;;;;;;;;;2034233;29;20220;-58
2021/04/03 04:20:43;;;;;;;17.93;6.53;;;;;;;;;;2029603;29;20628;-60
2021/04/03 04:21:53;;;;;;;21.03;6.10;;;;;;;;;;2033379;29;20180;-58
2021/04/03 04:22:53;;;;;;;23.07;6.93;;;;;;;;;;2040681;29;20252;-61
2021/04/03 04:23:58;;;;;;;24.50;7.43;;;;;;;;;;2037920;29;20184;-60
2021/04/03 04:25:01;;;;;;;20.43;6.50;;;;;;;;;;2041541;29;20175;-58
2021/04/03 04:26:03;;;;;;;25.30;8.03;;;;;;;;;;2040046;29;20307;-59
2021/04/03 04:27:06;;;;;;;20.13;7.20;;;;;;;;;;2035268;29;20172;-60
2021/04/03 04:28:08;;;;;;;21.17;6.63;;;;;;;;;;2046331;29;20516;-60
2021/04/03 04:29:08;;;;;;;20.63;7.60;;;;;;;;;;2043606;29;20182;-58
2021/04/03 04:30:09;;;;;;;27.73;7.90;;;;;;;;;;2046168;29;21818;-59
2021/04/03 04:31:11;;;;;;;20.23;7.97;;;;;;;;;;2039175;29;20626;-61
2021/04/03 04:32:26;;;;;;;22.57;6.90;;;;;;;;;;2037680;29;20233;-58
2021/04/03 04:33:26;;;;;;;21.97;7.10;;;;;;;;;;2045365;29;20899;-58
2021/04/03 04:34:27;;;;;;;20.63;7.17;;;;;;;;;;2043347;29;20562;-58
2021/04/03 04:35:32;;;;;;;21.63;7.60;;;;;;;;;;2046436;29;20254;-58
2021/04/03 04:36:34;;;;;;;23.73;7.73;;;;;;;;;;2045042;28;20171;-60
2021/04/03 04:37:39;;;;;;;19.30;6.73;;;;;;;;;;2046617;29;20178;-59
2021/04/03 04:38:39;;;;;;;23.97;7.80;;;;;;;;;;2047595;28;21036;-58
2021/04/03 04:39:41;;;;;;;20.77;7.57;;;;;;;;;;2041517;29;20532;-57
2021/04/03 04:40:48;;;;;;;29.30;8.57;;;;;;;;;;2042119;29;20186;-61
2021/04/03 04:41:51;;;;;;;17.60;7.40;;;;;;;;;;2032975;29;20592;-59
2021/04/03 04:42:54;;;;;;;22.93;7.70;;;;;;;;;;2040801;29;20186;-58
2021/04/03 04:43:58;;;;;;;21.17;7.37;;;;;;;;;;2041644;29;20675;-60
2021/04/03 04:44:59;;;;;;;23.63;8.43;;;;;;;;;;2046970;29;20227;-60
2021/04/03 04:45:59;;;;;;;23.77;7.33;;;;;;;;;;2036891;29;20563;-59
2021/04/03 04:47:07;;;;;;;23.10;8.10;;;;;;;;;;2044599;29;20239;-60
2021/04/03 04:48:09;;;;;;;25.20;8.67;;;;;;;;;;2044432;28;20199;-60
2021/04/03 04:49:10;;;;;;;22.97;7.77;;;;;;;;;;2045777;29;20278;-59
2021/04/03 04:50:13;;;;;;;22.60;8.47;;;;;;;;;;2041279;29;20667;-60
2021/04/03 04:51:14;;;;;;;23.43;8.13;;;;;;;;;;2045603;29;20199;-59
2021/04/03 04:52:14;;;;;;;31.80;8.53;;;;;;;;;;2043374;29;20182;-60
2021/04/03 04:53:15;;;;;;;23.17;8.43;;;;;;;;;;2044672;29;20274;-59
2021/04/03 04:54:19;;;;;;;20.13;8.43;;;;;;;;;;2052562;28;20174;-60
2021/04/03 04:55:22;;;;;;;25.90;8.60;;;;;;;;;;2044407;29;20233;-60
2021/04/03 04:56:24;;;;;;;25.47;8.17;;;;;;;;;;2032707;29;20216;-59
2021/04/03 04:57:25;;;;;;;27.70;8.50;;;;;;;;;;2043645;29;20583;-59
2021/04/03 04:58:32;;;;;;;19.27;8.10;;;;;;;;;;2050720;28;20166;-59
2021/04/03 04:59:33;;;;;;;26.47;8.90;;;;;;;;;;2047020;29;20175;-59
2021/04/03 05:00:42;;;;;;;23.93;7.60;;;;;;;;;;2039384;29;20571;-59
2021/04/03 05:01:48;;;;;;;24.80;8.83;;;;;;;;;;2048900;29;20186;-59
2021/04/03 05:02:50;;;;;;;24.97;9.47;;;;;;;;;;2032799;29;20292;-59
2021/04/03 05:03:50;;;;;;;19.60;8.40;;;;;;;;;;2044731;29;20621;-57
2021/04/03 05:04:51;;;;;;;24.67;8.77;;;;;;;;;;2044522;29;20596;-60
2021/04/03 05:05:52;;;;;;;24.23;9.13;;;;;;;;;;2049432;29;20202;-57
2021/04/03 05:06:52;;;;;;;24.97;8.63;;;;;;;;;;2041442;29;20752;-59
2021/04/03 05:07:52;;;;;;;24.23;7.90;;;;;;;;;;2049200;28;20183;-58
2021/04/03 05:08:52;;;;;;;27.37;9.20;;;;;;;;;;2041440;29;20226;-57
2021/04/03 05:09:53;;;;;;;23.33;8.80;;;;;;;;;;2042204;28;20184;-57
2021/04/03 05:10:53;;;;;;;25.57;9.10;;;;;;;;;;2039968;29;20616;-57
2021/04/03 05:11:53;;;;;;;24.87;8.83;;;;;;;;;;2040918;29;20645;-61
2021/04/03 05:12:54;;;;;;;33.33;9.17;;;;;;;;;;2041561;29;20315;-59
2021/04/03 05:13:54;;;;;;;28.77;9.73;;;;;;;;;;2047472;29;20222;-59
2021/04/03 05:14:54;;;;;;;25.37;9.33;;;;;;;;;;2040637;29;20182;-58
2021/04/03 05:15:55;;;;;;;22.00;7.53;;;;;;;;;;2048365;29;20632;-61
2021/04/03 05:16:55;;;;;;;26.17;9.67;;;;;;;;;;2040649;29;20264;-58
2021/04/03 05:17:56;;;;;;;26.27;9.03;;;;;;;;;;2041294;29;20180;-57
2021/04/03 05:18:56;;;;;;;32.03;9.10;;;;;;;;;;2048233;29;20175;-59
2021/04/03 05:19:56;;;;;;;29.90;9.63;;;;;;;;;;2041545;29;20176;-59
2021/04/03 05:20:57;;;;;;;23.20;8.33;;;;;;;;;;2047452;29;20179;-60
2021/04/03 05:21:57;;;;;;;29.40;10.13;;;;;;;;;;2044637;29;20180;-60
2021/04/03 05:22:57;;;;;;;23.67;8.10;;;;;;;;;;2048532;28;20194;-60
2021/04/03 05:23:58;;;;;;;24.57;8.43;;;;;;;;;;2039727;29;20212;-60
2021/04/03 05:24:58;;;;;;;32.43;9.23;;;;;;;;;;2042410;29;20164;-60
2021/04/03 05:25:58;;;;;;;27.73;8.33;;;;;;;;;;2045101;29;20199;-60
2021/04/03 05:26:58;;;;;;;24.63;9.63;;;;;;;;;;2047804;29;20163;-59
2021/04/03 05:27:59;;;;;;;25.40;9.10;;;;;;;;;;2040823;29;20226;-59
2021/04/03 05:28:59;;;;;;;21.63;8.60;;;;;;;;;;2046855;29;20684;-61
2021/04/03 05:29:59;;;;;;;21.20;9.47;;;;;;;;;;2033617;29;20217;-56
2021/04/03 05:30:59;;;;;;;23.60;9.13;;;;;;;;;;2047536;29;20197;-61
2021/04/03 05:32:00;;;;;;;27.17;8.93;;;;;;;;;;2043655;29;20377;-60
2021/04/03 05:33:00;;;;;;;24.83;9.00;;;;;;;;;;2047928;29;20219;-59
2021/04/03 05:34:00;;;;;;;27.70;9.23;;;;;;;;;;2041145;29;20251;-60
2021/04/03 05:35:01;;;;;;;30.50;9.60;;;;;;;;;;2035216;29;20179;-60
2021/04/03 05:36:01;;;;;;;30.37;9.57;;;;;;;;;;2042101;29;20183;-60
2021/04/03 05:37:01;;;;;;;22.27;9.43;;;;;;;;;;2047545;29;20670;-59
2021/04/03 05:38:02;;;;;;;34.40;10.23;;;;;;;;;;2042795;29;20187;-59
2021/04/03 05:39:03;;;;;;;33.40;9.70;;;;;;;;;;2047027;28;20647;-60
2021/04/03 05:40:04;;;;;;;24.20;9.43;;;;;;;;;;2042335;29;20192;-59
2021/04/03 05:41:04;;;;;;;25.47;9.50;;;;;;;;;;2045892;29;20199;-58
2021/04/03 05:42:05;;;;;;;23.97;8.97;;;;;;;;;;2042764;29;20180;-59
2021/04/03 05:43:05;;;;;;;24.03;9.43;;;;;;;;;;2046156;29;20249;-58
2021/04/03 05:44:09;;;;;;;23.57;8.63;;;;;;;;;;2043403;29;20644;-60
2021/04/03 05:45:13;;;;;;;25.27;9.17;;;;;;;;;;2044471;28;20263;-58
2021/04/03 05:46:13;;;;;;;30.27;8.40;;;;;;;;;;2043735;29;20262;-60
2021/04/03 05:47:14;;;;;;;24.73;9.43;;;;;;;;;;2046246;29;20194;-58
2021/04/03 05:48:14;;;;;;;29.30;10.60;;;;;;;;;;2045395;29;20178;-57
2021/04/03 05:49:17;;;;;;;28.80;8.77;;;;;;;;;;2042194;29;20203;-59
2021/04/03 05:50:17;;;;;;;26.63;9.97;;;;;;;;;;2046788;29;20265;-59
2021/04/03 05:51:18;;;;;;;25.60;7.80;;;;;;;;;;2044831;28;20218;-57
2021/04/03 05:52:18;;;;;;;30.43;9.87;;;;;;;;;;2044585;29;20222;-57
2021/04/03 05:53:20;;;;;;;25.90;10.07;;;;;;;;;;2040277;29;20219;-57
2021/04/03 05:54:20;;;;;;;30.10;10.20;;;;;;;;;;2040908;29;20271;-58
2021/04/03 05:55:20;;;;;;;20.20;9.80;;;;;;;;;;2044358;29;20182;-58
2021/04/03 05:56:20;;;;;;;23.53;9.87;;;;;;;;;;2044378;29;20670;-59
2021/04/03 05:57:22;;;;;;;25.17;10.63;;;;;;;;;;2043156;29;20195;-57
2021/04/03 05:58:22;;;;;;;27.23;9.10;;;;;;;;;;2044699;29;20175;-58
2021/04/03 05:59:23;;;;;;;25.10;9.10;;;;;;;;;;2045678;29;20245;-59
2021/04/03 06:00:23;;;;;;;20.17;9.73;;;;;;;;;;2043388;29;20172;-59
2021/04/03 06:01:24;;;;;;;26.97;9.97;;;;;;;;;;2044042;29;20183;-59
2021/04/03 06:02:24;;;;;;;29.20;9.73;;;;;;;;;;2040060;29;20274;-60
2021/04/03 06:03:25;;;;;;;31.07;9.83;;;;;;;;;;2044738;29;20354;-59
2021/04/03 06:04:25;;;;;;;27.73;9.87;;;;;;;;;;2044069;29;20552;-61
2021/04/03 06:05:25;;;;;;;26.77;10.93;;;;;;;;;;2045862;29;20179;-59
2021/04/03 06:06:25;;;;;;;25.23;9.03;;;;;;;;;;2043379;29;20172;-59
2021/04/03 06:07:26;;;;;;;25.57;10.17;;;;;;;;;;2044917;29;20874;-60
2021/04/03 06:08:30;;;;;;;36.87;10.87;;;;;;;;;;2043014;29;20204;-60
2021/04/03 06:09:30;;;;;;;25.23;10.33;;;;;;;;;;2045812;29;20197;-60
2021/04/03 06:10:31;;;;;;;26.80;10.77;;;;;;;;;;2040426;29;20207;-60
2021/04/03 06:11:42;;;;;;;28.93;10.33;;;;;;;;;;2044273;29;20183;-59
2021/04/03 06:12:46;;;;;;;32.23;10.67;;;;;;;;;;2041229;29;20263;-59